createdAt,value
2019-02-22T00:00:00.605Z,11.94
2019-02-22T00:01:00.830Z,11.99
2019-02-22T00:02:00.939Z,11.87
2019-02-22T00:03:01.276Z,11.88
2019-02-22T00:04:01.271Z,11.87
2019-02-22T00:05:01.432Z,11.90
2019-02-22T00:06:01.595Z,11.95
2019-02-22T00:07:01.743Z,11.84
2019-02-22T00:08:01.970Z,11.78
2019-02-22T00:09:02.132Z,11.81
2019-02-22T00:10:02.218Z,11.87
2019-02-22T00:11:02.474Z,11.70
2019-02-22T00:12:02.622Z,11.80
2019-02-22T00:13:02.752Z,11.78
2019-02-22T00:14:02.947Z,11.75
2019-02-22T00:15:03.110Z,11.77
2019-02-22T00:16:03.314Z,11.75
2019-02-22T00:17:03.497Z,11.81
2019-02-22T00:18:03.654Z,11.91
2019-02-22T00:19:03.879Z,11.86
2019-02-22T00:20:03.976Z,11.77
2019-02-22T00:21:04.127Z,11.87
2019-02-22T00:22:04.287Z,11.75
2019-02-22T00:23:04.490Z,11.88
2019-02-22T00:24:04.689Z,11.86
2019-02-22T00:25:04.857Z,11.83
2019-02-22T00:26:05.074Z,11.90
2019-02-22T00:27:05.202Z,11.84
2019-02-22T00:28:05.376Z,11.87
2019-02-22T00:29:05.539Z,11.87
2019-02-22T00:30:05.683Z,11.88
2019-02-22T00:31:05.851Z,11.87
2019-02-22T00:32:06.042Z,11.88
2019-02-22T00:33:06.198Z,11.84
2019-02-22T00:34:06.383Z,11.88
2019-02-22T00:35:06.479Z,11.84
2019-02-22T00:36:06.723Z,11.90
2019-02-22T00:37:06.899Z,11.90
2019-02-22T00:38:06.981Z,12.02
2019-02-22T00:39:07.136Z,12.02
2019-02-22T00:40:07.232Z,11.86
2019-02-22T00:41:07.410Z,11.90
2019-02-22T00:42:07.574Z,11.84
2019-02-22T00:43:07.742Z,11.86
2019-02-22T00:44:07.918Z,11.88
2019-02-22T00:45:08.074Z,11.88
2019-02-22T00:46:08.271Z,11.87
2019-02-22T00:47:08.469Z,11.88
2019-02-22T00:48:08.697Z,11.84
2019-02-22T00:49:08.717Z,11.87
2019-02-22T00:50:08.941Z,11.87
2019-02-22T00:51:09.131Z,11.90
2019-02-22T00:52:09.310Z,11.81
2019-02-22T00:53:09.461Z,11.87
2019-02-22T00:54:09.659Z,11.88
2019-02-22T00:55:09.837Z,11.83
2019-02-22T00:56:09.995Z,11.86
2019-02-22T00:57:10.191Z,11.87
2019-02-22T00:58:10.397Z,11.81
2019-02-22T00:59:10.565Z,11.87
2019-02-22T01:00:10.815Z,11.84
2019-02-22T01:01:10.909Z,11.87
2019-02-22T01:02:11.116Z,11.84
2019-02-22T01:03:11.350Z,11.88
2019-02-22T01:04:11.413Z,11.95
2019-02-22T01:05:11.572Z,11.97
2019-02-22T01:06:11.721Z,11.84
2019-02-22T01:07:11.871Z,11.84
2019-02-22T01:08:12.067Z,11.91
2019-02-22T01:09:12.222Z,11.86
2019-02-22T01:10:12.336Z,11.95
2019-02-22T01:11:12.545Z,11.87
2019-02-22T01:12:12.711Z,11.87
2019-02-22T01:13:12.867Z,11.81
2019-02-22T01:14:12.978Z,11.88
2019-02-22T01:15:13.182Z,11.88
2019-02-22T01:16:13.357Z,11.91
2019-02-22T01:17:13.509Z,11.87
2019-02-22T01:18:13.741Z,11.94
2019-02-22T01:19:13.890Z,11.90
2019-02-22T01:20:14.065Z,11.97
2019-02-22T01:21:14.245Z,11.90
2019-02-22T01:22:14.438Z,11.84
2019-02-22T01:23:14.662Z,11.88
2019-02-22T01:24:14.765Z,11.94
2019-02-22T01:25:14.930Z,11.84
2019-02-22T01:26:15.133Z,11.88
2019-02-22T01:27:15.312Z,11.84
2019-02-22T01:28:15.492Z,11.91
2019-02-22T01:29:15.672Z,11.95
2019-02-22T01:30:15.817Z,11.94
2019-02-22T01:31:15.920Z,11.97
2019-02-22T01:32:17.412Z,11.95
2019-02-22T01:33:19.874Z,12.00
2019-02-22T01:34:19.006Z,11.97
2019-02-22T01:35:19.866Z,12.02
2019-02-22T01:36:18.544Z,11.97
2019-02-22T01:37:21.266Z,11.88
2019-02-22T01:38:18.047Z,11.87
2019-02-22T01:39:18.369Z,11.94
2019-02-22T01:40:19.095Z,11.86
2019-02-22T01:41:19.401Z,11.95
2019-02-22T01:42:18.005Z,11.81
2019-02-22T01:43:17.789Z,11.88
2019-02-22T01:44:17.989Z,11.86
2019-02-22T01:45:18.294Z,11.88
2019-02-22T01:46:18.393Z,11.91
2019-02-22T01:47:18.557Z,11.94
2019-02-22T01:48:18.735Z,11.95
2019-02-22T01:49:18.901Z,11.97
2019-02-22T01:50:19.061Z,11.95
2019-02-22T01:51:19.302Z,12.04
2019-02-22T01:52:19.493Z,12.03
2019-02-22T01:53:19.592Z,12.13
2019-02-22T01:54:19.778Z,12.06
2019-02-22T01:55:19.955Z,12.09
2019-02-22T01:56:20.121Z,11.95
2019-02-22T01:57:20.239Z,12.04
2019-02-22T01:58:20.478Z,12.00
2019-02-22T01:59:20.705Z,12.02
2019-02-22T02:00:20.852Z,11.95
2019-02-22T02:01:20.958Z,12.03
2019-02-22T02:02:21.218Z,12.13
2019-02-22T02:03:21.378Z,12.06
2019-02-22T02:04:21.555Z,12.07
2019-02-22T02:05:21.717Z,12.07
2019-02-22T02:06:21.867Z,12.04
2019-02-22T02:07:22.018Z,12.06
2019-02-22T02:08:22.191Z,12.02
2019-02-22T02:09:22.362Z,12.07
2019-02-22T02:10:22.451Z,12.07
2019-02-22T02:11:22.670Z,11.99
2019-02-22T02:12:22.920Z,12.03
2019-02-22T02:13:23.071Z,12.02
2019-02-22T02:14:23.250Z,12.10
2019-02-22T02:15:23.394Z,12.06
2019-02-22T02:16:23.578Z,12.09
2019-02-22T02:17:23.697Z,12.07
2019-02-22T02:18:23.896Z,12.03
2019-02-22T02:19:24.161Z,12.04
2019-02-22T02:20:24.200Z,12.02
2019-02-22T02:21:24.345Z,12.04
2019-02-22T02:22:24.489Z,12.03
2019-02-22T02:23:24.665Z,12.03
2019-02-22T02:24:24.831Z,12.03
2019-02-22T02:25:24.981Z,12.03
2019-02-22T02:26:25.625Z,12.02
2019-02-22T02:27:25.322Z,12.00
2019-02-22T02:28:25.538Z,11.91
2019-02-22T02:29:25.704Z,11.88
2019-02-22T02:30:25.880Z,11.86
2019-02-22T02:31:26.046Z,11.86
2019-02-22T02:32:26.215Z,11.77
2019-02-22T02:33:26.373Z,11.81
2019-02-22T02:34:26.561Z,11.86
2019-02-22T02:35:26.610Z,11.86
2019-02-22T02:36:26.826Z,11.84
2019-02-22T02:37:27.005Z,11.87
2019-02-22T02:38:27.161Z,11.91
2019-02-22T02:39:27.328Z,11.94
2019-02-22T02:40:27.457Z,11.88
2019-02-22T02:41:27.665Z,11.87
2019-02-22T02:42:27.868Z,11.84
2019-02-22T02:43:28.042Z,11.83
2019-02-22T02:44:28.227Z,11.87
2019-02-22T02:45:28.383Z,11.87
2019-02-22T02:46:28.591Z,11.87
2019-02-22T02:47:28.738Z,11.90
2019-02-22T02:48:28.901Z,11.87
2019-02-22T02:49:29.054Z,11.88
2019-02-22T02:50:29.271Z,11.86
2019-02-22T02:51:29.430Z,11.86
2019-02-22T02:52:29.641Z,11.87
2019-02-22T02:53:30.142Z,11.86
2019-02-22T02:54:29.917Z,11.84
2019-02-22T02:55:30.075Z,11.84
2019-02-22T02:56:30.227Z,11.90
2019-02-22T02:57:30.403Z,11.90
2019-02-22T02:58:30.558Z,11.90
2019-02-22T02:59:30.710Z,12.02
2019-02-22T03:00:31.881Z,11.95
2019-02-22T03:01:30.999Z,11.87
2019-02-22T03:02:31.206Z,11.86
2019-02-22T03:03:31.351Z,11.84
2019-02-22T03:04:31.550Z,11.90
2019-02-22T03:05:31.764Z,11.95
2019-02-22T03:06:31.955Z,11.83
2019-02-22T03:07:32.122Z,11.81
2019-02-22T03:08:32.232Z,11.72
2019-02-22T03:09:32.402Z,11.83
2019-02-22T03:10:32.557Z,11.86
2019-02-22T03:11:32.721Z,11.69
2019-02-22T03:12:32.875Z,11.83
2019-02-22T03:13:33.110Z,11.87
2019-02-22T03:14:33.173Z,11.83
2019-02-22T03:15:33.362Z,11.90
2019-02-22T03:16:33.531Z,11.86
2019-02-22T03:17:33.698Z,11.83
2019-02-22T03:18:33.889Z,11.87
2019-02-22T03:19:34.068Z,11.84
2019-02-22T03:20:34.227Z,11.81
2019-02-22T03:21:34.363Z,11.73
2019-02-22T03:22:34.528Z,11.81
2019-02-22T03:23:34.727Z,11.78
2019-02-22T03:24:34.877Z,11.81
2019-02-22T03:25:35.042Z,11.75
2019-02-22T03:26:35.190Z,11.68
2019-02-22T03:27:35.336Z,11.70
2019-02-22T03:28:35.536Z,11.69
2019-02-22T03:29:35.700Z,11.75
2019-02-22T03:30:35.932Z,11.70
2019-02-22T03:31:36.060Z,11.75
2019-02-22T03:32:36.192Z,11.70
2019-02-22T03:33:36.365Z,11.75
2019-02-22T03:34:36.536Z,11.72
2019-02-22T03:35:36.685Z,11.72
2019-02-22T03:36:36.847Z,11.77
2019-02-22T03:37:37.115Z,11.80
2019-02-22T03:38:37.211Z,11.87
2019-02-22T03:39:37.373Z,11.80
2019-02-22T03:40:37.531Z,11.87
2019-02-22T03:41:37.698Z,11.83
2019-02-22T03:42:37.876Z,11.78
2019-02-22T03:43:38.027Z,11.72
2019-02-22T03:44:38.217Z,11.81
2019-02-22T03:45:38.414Z,11.83
2019-02-22T03:46:38.562Z,11.86
2019-02-22T03:47:38.759Z,11.81
2019-02-22T03:48:38.916Z,11.86
2019-02-22T03:49:39.110Z,11.69
2019-02-22T03:50:39.276Z,11.77
2019-02-22T03:51:39.458Z,11.80
2019-02-22T03:52:39.625Z,11.75
2019-02-22T03:53:39.783Z,11.73
2019-02-22T03:54:39.948Z,11.77
2019-02-22T03:55:40.110Z,11.75
2019-02-22T03:56:40.206Z,11.72
2019-02-22T03:57:40.381Z,11.75
2019-02-22T03:58:43.933Z,11.70
2019-02-22T03:59:42.460Z,11.75
2019-02-22T04:00:43.729Z,11.78
2019-02-22T04:01:41.440Z,11.73
2019-02-22T04:02:41.294Z,11.70
2019-02-22T04:03:41.502Z,11.80
2019-02-22T04:04:41.667Z,11.83
2019-02-22T04:05:41.824Z,11.78
2019-02-22T04:06:41.999Z,11.77
2019-02-22T04:07:42.210Z,11.83
2019-02-22T04:08:42.370Z,11.70
2019-02-22T04:09:42.545Z,11.73
2019-02-22T04:10:42.718Z,11.77
2019-02-22T04:11:45.973Z,11.68
2019-02-22T04:12:43.095Z,11.73
2019-02-22T04:13:43.213Z,11.69
2019-02-22T04:14:43.422Z,11.69
2019-02-22T04:15:43.580Z,11.68
2019-02-22T04:16:43.760Z,11.73
2019-02-22T04:17:43.931Z,11.69
2019-02-22T04:18:44.048Z,11.72
2019-02-22T04:19:44.231Z,11.65
2019-02-22T04:20:44.361Z,11.57
2019-02-22T04:21:44.543Z,11.59
2019-02-22T04:22:44.709Z,11.69
2019-02-22T04:23:44.904Z,11.68
2019-02-22T04:24:45.078Z,11.69
2019-02-22T04:25:45.262Z,11.70
2019-02-22T04:26:45.731Z,11.65
2019-02-22T04:27:46.012Z,11.73
2019-02-22T04:28:45.760Z,11.69
2019-02-22T04:29:45.945Z,11.75
2019-02-22T04:30:46.171Z,11.69
2019-02-22T04:31:49.317Z,11.65
2019-02-22T04:32:46.456Z,11.81
2019-02-22T04:33:47.248Z,11.75
2019-02-22T04:34:46.742Z,11.78
2019-02-22T04:35:46.936Z,11.72
2019-02-22T04:36:47.119Z,11.68
2019-02-22T04:37:47.232Z,11.72
2019-02-22T04:38:47.379Z,11.68
2019-02-22T04:39:47.532Z,11.68
2019-02-22T04:40:47.699Z,11.66
2019-02-22T04:41:57.694Z,11.63
2019-02-22T04:42:48.049Z,11.63
2019-02-22T04:43:48.204Z,11.57
2019-02-22T04:44:48.368Z,11.59
2019-02-22T04:45:48.553Z,11.55
2019-02-22T04:46:48.765Z,11.47
2019-02-22T04:47:48.795Z,11.37
2019-02-22T04:48:48.964Z,11.43
2019-02-22T04:49:49.150Z,11.32
2019-02-22T04:50:49.320Z,11.37
2019-02-22T04:51:49.516Z,11.44
2019-02-22T04:52:49.692Z,11.37
2019-02-22T04:53:49.793Z,11.36
2019-02-22T04:54:49.894Z,11.36
2019-02-22T04:55:50.203Z,11.30
2019-02-22T04:56:50.244Z,11.27
2019-02-22T04:57:50.488Z,11.32
2019-02-22T04:58:50.669Z,11.25
2019-02-22T04:59:50.871Z,11.27
2019-02-22T05:00:51.062Z,11.14
2019-02-22T05:01:51.237Z,11.22
2019-02-22T05:02:51.395Z,11.25
2019-02-22T05:03:51.577Z,11.32
2019-02-22T05:04:51.729Z,11.32
2019-02-22T05:05:51.917Z,11.40
2019-02-22T05:06:52.144Z,11.37
2019-02-22T05:07:52.238Z,11.36
2019-02-22T05:08:52.403Z,11.25
2019-02-22T05:09:52.580Z,11.36
2019-02-22T05:10:52.790Z,11.35
2019-02-22T05:11:52.975Z,11.33
2019-02-22T05:12:53.137Z,11.35
2019-02-22T05:13:53.291Z,11.41
2019-02-22T05:14:53.441Z,11.27
2019-02-22T05:15:53.601Z,11.17
2019-02-22T05:16:55.343Z,11.18
2019-02-22T05:17:54.779Z,11.22
2019-02-22T05:18:54.113Z,11.22
2019-02-22T05:19:54.287Z,11.19
2019-02-22T05:20:54.471Z,11.22
2019-02-22T05:21:54.566Z,11.19
2019-02-22T05:23:03.385Z,11.26
2019-02-22T05:23:54.912Z,11.19
2019-02-22T05:24:55.065Z,11.25
2019-02-22T05:25:55.268Z,11.25
2019-02-22T05:26:55.435Z,11.29
2019-02-22T05:27:55.708Z,11.23
2019-02-22T05:28:55.744Z,11.18
2019-02-22T05:29:55.871Z,11.14
2019-02-22T05:30:56.025Z,11.18
2019-02-22T05:31:56.196Z,11.19
2019-02-22T05:32:56.356Z,11.19
2019-02-22T05:33:56.521Z,11.19
2019-02-22T05:34:57.687Z,11.29
2019-02-22T05:35:56.861Z,11.23
2019-02-22T05:36:57.128Z,11.26
2019-02-22T05:37:57.311Z,11.29
2019-02-22T05:38:57.536Z,11.23
2019-02-22T05:39:57.763Z,11.19
2019-02-22T05:40:57.799Z,11.19
2019-02-22T05:41:58.268Z,11.30
2019-02-22T05:42:58.162Z,11.26
2019-02-22T05:43:58.192Z,11.23
2019-02-22T05:44:58.358Z,11.26
2019-02-22T05:45:58.612Z,11.23
2019-02-22T05:47:00.573Z,11.29
2019-02-22T05:47:58.967Z,11.18
2019-02-22T05:48:59.193Z,11.29
2019-02-22T05:49:59.253Z,11.15
2019-02-22T05:50:59.425Z,11.11
2019-02-22T05:51:59.604Z,11.02
2019-02-22T05:52:59.779Z,10.97
2019-02-22T05:53:59.959Z,11.05
2019-02-22T05:55:00.326Z,11.08
2019-02-22T05:56:00.329Z,11.10
2019-02-22T05:57:00.495Z,10.99
2019-02-22T05:58:00.675Z,10.97
2019-02-22T05:59:00.858Z,10.87
2019-02-22T06:00:01.060Z,10.84
2019-02-22T06:01:01.143Z,10.87
2019-02-22T06:02:01.332Z,10.82
2019-02-22T06:03:01.530Z,10.84
2019-02-22T06:04:01.653Z,10.78
2019-02-22T06:05:01.884Z,10.71
2019-02-22T06:06:02.121Z,10.81
2019-02-22T06:07:02.146Z,10.64
2019-02-22T06:08:02.374Z,10.68
2019-02-22T06:09:02.521Z,10.61
2019-02-22T06:10:02.721Z,10.63
2019-02-22T06:11:02.925Z,10.64
2019-02-22T06:12:03.108Z,10.54
2019-02-22T06:13:03.387Z,10.61
2019-02-22T06:14:03.420Z,10.64
2019-02-22T06:15:03.605Z,10.76
2019-02-22T06:16:03.879Z,10.72
2019-02-22T06:17:14.272Z,10.74
2019-02-22T06:18:04.006Z,10.71
2019-02-22T06:19:04.201Z,10.49
2019-02-22T06:20:04.268Z,10.59
2019-02-22T06:21:04.510Z,10.57
2019-02-22T06:22:04.638Z,10.54
2019-02-22T06:23:04.823Z,10.49
2019-02-22T06:24:05.002Z,10.46
2019-02-22T06:25:05.257Z,10.51
2019-02-22T06:26:05.315Z,10.53
2019-02-22T06:27:05.604Z,10.54
2019-02-22T06:28:05.651Z,10.59
2019-02-22T06:29:05.802Z,10.54
2019-02-22T06:30:06.013Z,10.51
2019-02-22T06:31:06.205Z,10.44
2019-02-22T06:32:06.549Z,10.46
2019-02-22T06:33:06.504Z,10.57
2019-02-22T06:34:06.645Z,10.56
2019-02-22T06:35:08.835Z,10.63
2019-02-22T06:36:08.207Z,10.64
2019-02-22T06:37:07.133Z,10.69
2019-02-22T06:38:07.325Z,10.71
2019-02-22T06:39:07.474Z,10.78
2019-02-22T06:40:07.666Z,10.75
2019-02-22T06:41:07.825Z,10.76
2019-02-22T06:42:08.030Z,10.72
2019-02-22T06:43:08.091Z,10.84
2019-02-22T06:44:08.243Z,10.78
2019-02-22T06:45:08.420Z,10.86
2019-02-22T06:46:08.599Z,10.84
2019-02-22T06:47:11.120Z,10.84
2019-02-22T06:48:11.706Z,10.90
2019-02-22T06:49:11.057Z,10.86
2019-02-22T06:50:11.564Z,10.90
2019-02-22T06:51:13.100Z,10.87
2019-02-22T06:52:12.333Z,10.81
2019-02-22T06:53:10.908Z,10.86
2019-02-22T06:54:09.904Z,10.75
2019-02-22T06:55:10.090Z,10.87
2019-02-22T06:56:10.257Z,10.99
2019-02-22T06:57:10.401Z,11.04
2019-02-22T06:58:11.819Z,10.94
2019-02-22T06:59:10.705Z,11.07
2019-02-22T07:00:11.093Z,10.94
2019-02-22T07:01:11.085Z,11.08
2019-02-22T07:02:11.260Z,11.07
2019-02-22T07:03:11.425Z,11.15
2019-02-22T07:04:11.593Z,11.15
2019-02-22T07:05:11.781Z,11.07
2019-02-22T07:06:11.929Z,11.22
2019-02-22T07:07:12.103Z,11.26
2019-02-22T07:08:12.250Z,11.33
2019-02-22T07:09:12.517Z,11.10
2019-02-22T07:10:12.676Z,11.22
2019-02-22T07:11:12.829Z,11.17
2019-02-22T07:12:13.015Z,11.22
2019-02-22T07:13:13.811Z,11.30
2019-02-22T07:14:13.296Z,11.44
2019-02-22T07:15:13.462Z,11.27
2019-02-22T07:16:13.642Z,11.26
2019-02-22T07:17:13.799Z,11.29
2019-02-22T07:18:13.967Z,11.35
2019-02-22T07:19:14.131Z,11.32
2019-02-22T07:20:14.290Z,11.45
2019-02-22T07:21:14.428Z,11.41
2019-02-22T07:22:14.564Z,11.50
2019-02-22T07:23:14.770Z,11.48
2019-02-22T07:24:14.920Z,11.50
2019-02-22T07:25:15.065Z,11.52
2019-02-22T07:26:15.150Z,11.52
2019-02-22T07:27:15.376Z,11.60
2019-02-22T07:28:15.548Z,11.59
2019-02-22T07:29:15.714Z,11.51
2019-02-22T07:30:15.883Z,11.59
2019-02-22T07:31:16.097Z,11.62
2019-02-22T07:32:16.249Z,11.62
2019-02-22T07:33:16.427Z,11.66
2019-02-22T07:34:16.606Z,11.63
2019-02-22T07:35:16.813Z,11.75
2019-02-22T07:36:17.007Z,11.73
2019-02-22T07:37:17.095Z,11.75
2019-02-22T07:38:17.258Z,11.78
2019-02-22T07:39:27.370Z,11.81
2019-02-22T07:40:19.875Z,11.73
2019-02-22T07:41:17.738Z,11.75
2019-02-22T07:42:17.874Z,11.88
2019-02-22T07:43:18.069Z,11.73
2019-02-22T07:44:18.222Z,11.83
2019-02-22T07:45:19.288Z,11.87
2019-02-22T07:46:18.943Z,11.87
2019-02-22T07:47:18.620Z,11.81
2019-02-22T07:48:18.795Z,11.86
2019-02-22T07:49:18.977Z,11.88
2019-02-22T07:50:19.131Z,11.86
2019-02-22T07:51:19.273Z,11.88
2019-02-22T07:52:19.423Z,11.95
2019-02-22T07:53:19.589Z,11.97
2019-02-22T07:54:19.759Z,12.04
2019-02-22T07:55:19.950Z,11.87
2019-02-22T07:56:20.113Z,11.95
2019-02-22T07:57:20.286Z,11.88
2019-02-22T07:58:24.334Z,11.97
2019-02-22T07:59:20.591Z,11.99
2019-02-22T08:00:20.773Z,12.02
2019-02-22T08:01:20.950Z,12.07
2019-02-22T08:02:21.171Z,11.97
2019-02-22T08:03:21.257Z,11.84
2019-02-22T08:04:21.405Z,11.87
2019-02-22T08:05:21.547Z,11.95
2019-02-22T08:06:21.701Z,11.86
2019-02-22T08:07:22.012Z,11.95
2019-02-22T08:08:22.066Z,12.06
2019-02-22T08:09:22.220Z,11.99
2019-02-22T08:10:22.347Z,11.90
2019-02-22T08:11:22.399Z,12.03
2019-02-22T08:12:22.629Z,11.97
2019-02-22T08:13:22.772Z,12.02
2019-02-22T08:14:22.924Z,12.10
2019-02-22T08:15:22.990Z,12.06
2019-02-22T08:16:23.276Z,12.09
2019-02-22T08:17:23.537Z,12.13
2019-02-22T08:18:24.187Z,12.20
2019-02-22T08:19:24.654Z,12.12
2019-02-22T08:20:25.199Z,12.22
2019-02-22T08:21:25.365Z,12.24
2019-02-22T08:22:24.567Z,12.21
2019-02-22T08:23:25.172Z,12.17
2019-02-22T08:24:25.926Z,12.20
2019-02-22T08:25:27.690Z,12.12
2019-02-22T08:26:25.256Z,12.20
2019-02-22T08:27:24.956Z,12.15
2019-02-22T08:28:24.989Z,12.06
2019-02-22T08:29:25.167Z,12.06
2019-02-22T08:30:25.504Z,12.07
2019-02-22T08:31:26.867Z,12.10
2019-02-22T08:32:25.604Z,12.10
2019-02-22T08:33:27.865Z,12.06
2019-02-22T08:34:26.631Z,12.10
2019-02-22T08:35:27.256Z,12.02
2019-02-22T08:36:28.240Z,12.10
2019-02-22T08:37:26.848Z,12.07
2019-02-22T08:38:26.880Z,12.10
2019-02-22T08:39:26.837Z,12.13
2019-02-22T08:40:27.079Z,12.10
2019-02-22T08:41:27.112Z,12.07
2019-02-22T08:42:27.344Z,12.04
2019-02-22T08:43:31.513Z,12.02
2019-02-22T08:44:27.786Z,12.06
2019-02-22T08:45:27.902Z,12.03
2019-02-22T08:46:28.244Z,11.97
2019-02-22T08:47:28.506Z,11.95
2019-02-22T08:48:28.869Z,11.94
2019-02-22T08:49:29.293Z,11.87
2019-02-22T08:50:28.672Z,12.04
2019-02-22T08:51:29.912Z,12.00
2019-02-22T08:52:29.123Z,12.04
2019-02-22T08:53:29.553Z,12.06
2019-02-22T08:54:29.430Z,12.10
2019-02-22T08:55:29.363Z,12.10
2019-02-22T08:56:29.923Z,12.13
2019-02-22T08:57:29.954Z,12.15
2019-02-22T08:58:30.137Z,12.15
2019-02-22T08:59:30.190Z,12.21
2019-02-22T09:00:30.577Z,12.29
2019-02-22T09:01:30.239Z,12.28
2019-02-22T09:02:30.408Z,12.32
2019-02-22T09:03:31.150Z,12.40
2019-02-22T09:04:30.766Z,12.36
2019-02-22T09:05:30.916Z,12.42
2019-02-22T09:06:31.095Z,12.43
2019-02-22T09:07:31.273Z,12.57
2019-02-22T09:08:31.442Z,12.64
2019-02-22T09:09:31.626Z,12.68
2019-02-22T09:10:32.682Z,12.65
2019-02-22T09:11:31.950Z,12.73
2019-02-22T09:12:32.202Z,12.67
2019-02-22T09:13:42.859Z,12.80
2019-02-22T09:14:35.827Z,12.70
2019-02-22T09:15:34.293Z,12.80
2019-02-22T09:16:33.467Z,12.70
2019-02-22T09:17:33.531Z,12.82
2019-02-22T09:18:34.816Z,12.85
2019-02-22T09:19:33.336Z,12.85
2019-02-22T09:20:34.200Z,12.85
2019-02-22T09:21:35.106Z,12.97
2019-02-22T09:22:35.484Z,12.86
2019-02-22T09:23:34.048Z,12.98
2019-02-22T09:24:34.671Z,12.94
2019-02-22T09:25:34.784Z,12.91
2019-02-22T09:26:34.513Z,12.93
2019-02-22T09:27:34.678Z,12.95
2019-02-22T09:28:34.776Z,12.79
2019-02-22T09:29:34.931Z,12.72
2019-02-22T09:30:35.199Z,12.73
2019-02-22T09:31:35.232Z,12.76
2019-02-22T09:32:35.404Z,12.65
2019-02-22T09:33:35.529Z,12.70
2019-02-22T09:34:35.655Z,12.70
2019-02-22T09:35:35.960Z,12.65
2019-02-22T09:36:37.619Z,12.54
2019-02-22T09:37:37.291Z,12.54
2019-02-22T09:38:37.962Z,12.50
2019-02-22T09:39:38.845Z,12.39
2019-02-22T09:40:36.664Z,12.37
2019-02-22T09:41:36.789Z,12.36
2019-02-22T09:42:36.933Z,12.39
2019-02-22T09:43:37.218Z,12.43
2019-02-22T09:44:38.599Z,12.46
2019-02-22T09:45:37.323Z,12.47
2019-02-22T09:46:37.659Z,12.50
2019-02-22T09:47:37.673Z,12.47
2019-02-22T09:48:37.871Z,12.40
2019-02-22T09:49:38.033Z,12.36
2019-02-22T09:50:38.240Z,12.22
2019-02-22T09:51:41.052Z,12.21
2019-02-22T09:52:38.564Z,12.18
2019-02-22T09:53:38.741Z,12.17
2019-02-22T09:54:38.941Z,12.15
2019-02-22T09:55:39.025Z,12.18
2019-02-22T09:56:39.149Z,12.18
2019-02-22T09:57:39.333Z,12.21
2019-02-22T09:58:39.494Z,12.20
2019-02-22T09:59:39.666Z,12.21
2019-02-22T10:00:39.856Z,12.28
2019-02-22T10:01:40.061Z,12.35
2019-02-22T10:02:40.267Z,12.37
2019-02-22T10:03:40.489Z,12.36
2019-02-22T10:04:40.650Z,12.45
2019-02-22T10:05:40.859Z,12.43
2019-02-22T10:06:41.144Z,12.57
2019-02-22T10:07:41.319Z,12.57
2019-02-22T10:08:41.345Z,12.55
2019-02-22T10:09:41.519Z,12.55
2019-02-22T10:10:41.741Z,12.61
2019-02-22T10:11:41.920Z,12.55
2019-02-22T10:12:42.107Z,12.61
2019-02-22T10:13:42.280Z,12.61
2019-02-22T10:14:42.371Z,12.62
2019-02-22T10:15:42.691Z,12.58
2019-02-22T10:16:42.751Z,12.46
2019-02-22T10:17:42.839Z,12.58
2019-02-22T10:18:43.029Z,12.57
2019-02-22T10:19:43.179Z,12.54
2019-02-22T10:20:43.389Z,12.54
2019-02-22T10:21:43.554Z,12.46
2019-02-22T10:22:43.774Z,12.54
2019-02-22T10:23:43.925Z,12.61
2019-02-22T10:24:44.094Z,12.67
2019-02-22T10:25:44.233Z,12.58
2019-02-22T10:26:44.411Z,12.67
2019-02-22T10:27:44.558Z,12.72
2019-02-22T10:28:44.727Z,12.68
2019-02-22T10:29:44.906Z,12.83
2019-02-22T10:30:45.091Z,12.87
2019-02-22T10:31:45.321Z,12.90
2019-02-22T10:32:45.465Z,12.87
2019-02-22T10:33:45.677Z,13.05
2019-02-22T10:34:46.159Z,13.03
2019-02-22T10:35:46.072Z,12.98
2019-02-22T10:36:46.238Z,12.98
2019-02-22T10:37:46.436Z,13.00
2019-02-22T10:38:46.776Z,13.00
2019-02-22T10:39:46.771Z,12.95
2019-02-22T10:40:46.997Z,12.93
2019-02-22T10:41:47.061Z,13.00
2019-02-22T10:42:48.070Z,13.03
2019-02-22T10:43:47.432Z,13.03
2019-02-22T10:44:47.825Z,13.00
2019-02-22T10:45:48.156Z,12.95
2019-02-22T10:46:48.039Z,13.08
2019-02-22T10:47:48.158Z,12.94
2019-02-22T10:48:48.390Z,13.04
2019-02-22T10:49:48.386Z,12.90
2019-02-22T10:50:48.943Z,13.05
2019-02-22T10:51:50.711Z,13.00
2019-02-22T10:52:48.988Z,12.97
2019-02-22T10:53:50.251Z,12.87
2019-02-22T10:54:49.620Z,13.03
2019-02-22T10:55:49.461Z,12.83
2019-02-22T10:56:49.572Z,12.78
2019-02-22T10:57:49.818Z,12.76
2019-02-22T10:58:49.854Z,12.80
2019-02-22T10:59:50.073Z,12.86
2019-02-22T11:00:50.280Z,12.78
2019-02-22T11:01:51.196Z,12.85
2019-02-22T11:02:50.807Z,12.73
2019-02-22T11:03:50.646Z,12.72
2019-02-22T11:04:50.852Z,12.80
2019-02-22T11:05:51.084Z,12.70
2019-02-22T11:06:51.247Z,12.72
2019-02-22T11:07:51.356Z,12.78
2019-02-22T11:08:51.489Z,12.67
2019-02-22T11:09:51.565Z,12.68
2019-02-22T11:10:51.711Z,12.57
2019-02-22T11:11:52.023Z,12.54
2019-02-22T11:12:52.160Z,12.49
2019-02-22T11:13:52.266Z,12.50
2019-02-22T11:14:52.637Z,12.54
2019-02-22T11:15:54.423Z,12.58
2019-02-22T11:16:52.723Z,12.60
2019-02-22T11:17:52.866Z,12.67
2019-02-22T11:18:53.155Z,12.58
2019-02-22T11:19:53.271Z,12.62
2019-02-22T11:20:53.440Z,12.62
2019-02-22T11:21:53.638Z,12.58
2019-02-22T11:22:53.843Z,12.64
2019-02-22T11:23:53.992Z,12.70
2019-02-22T11:24:54.216Z,12.76
2019-02-22T11:25:54.500Z,12.80
2019-02-22T11:26:54.552Z,12.76
2019-02-22T11:27:54.890Z,12.93
2019-02-22T11:28:54.900Z,12.93
2019-02-22T11:29:55.032Z,13.00
2019-02-22T11:30:55.340Z,13.11
2019-02-22T11:31:55.520Z,13.01
2019-02-22T11:32:55.667Z,13.09
2019-02-22T11:33:55.783Z,13.19
2019-02-22T11:34:56.071Z,13.33
2019-02-22T11:35:56.227Z,13.27
2019-02-22T11:36:56.371Z,13.41
2019-02-22T11:37:56.522Z,13.30
2019-02-22T11:38:56.688Z,13.31
2019-02-22T11:39:56.840Z,13.37
2019-02-22T11:40:57.038Z,13.31
2019-02-22T11:41:57.225Z,13.35
2019-02-22T11:42:57.404Z,13.46
2019-02-22T11:43:57.537Z,13.39
2019-02-22T11:44:57.663Z,13.53
2019-02-22T11:45:57.803Z,13.49
2019-02-22T11:46:58.039Z,13.52
2019-02-22T11:48:08.399Z,13.62
2019-02-22T11:48:58.402Z,13.57
2019-02-22T11:49:58.627Z,13.71
2019-02-22T11:50:58.720Z,13.68
2019-02-22T11:51:59.082Z,13.68
2019-02-22T11:52:58.995Z,13.81
2019-02-22T11:53:59.356Z,13.68
2019-02-22T11:54:59.425Z,13.71
2019-02-22T11:55:59.518Z,13.67
2019-02-22T11:56:59.683Z,13.71
2019-02-22T11:57:59.848Z,13.72
2019-02-22T11:59:00.040Z,13.65
2019-02-22T12:00:00.340Z,13.60
2019-02-22T12:01:00.385Z,13.70
2019-02-22T12:02:00.540Z,13.57
2019-02-22T12:03:12.252Z,13.71
2019-02-22T12:04:00.919Z,13.70
2019-02-22T12:05:01.348Z,13.75
2019-02-22T12:06:02.713Z,13.83
2019-02-22T12:07:01.335Z,13.95
2019-02-22T12:08:03.530Z,13.96
2019-02-22T12:09:01.563Z,14.07
2019-02-22T12:10:03.339Z,14.07
2019-02-22T12:11:01.845Z,14.40
2019-02-22T12:12:01.982Z,14.48
2019-02-22T12:13:02.570Z,14.70
2019-02-22T12:14:02.206Z,15.37
2019-02-22T12:15:02.784Z,15.79
2019-02-22T12:16:02.513Z,15.90
2019-02-22T12:17:03.822Z,15.91
2019-02-22T12:18:02.937Z,15.88
2019-02-22T12:19:02.926Z,15.76
2019-02-22T12:20:03.190Z,15.70
2019-02-22T12:21:03.367Z,15.73
2019-02-22T12:22:03.562Z,15.76
2019-02-22T12:23:03.726Z,15.62
2019-02-22T12:24:03.825Z,15.44
2019-02-22T12:25:05.320Z,15.37
2019-02-22T12:26:04.127Z,15.33
2019-02-22T12:27:04.437Z,15.42
2019-02-22T12:28:04.526Z,15.33
2019-02-22T12:29:04.713Z,15.36
2019-02-22T12:30:04.837Z,15.31
2019-02-22T12:31:05.024Z,15.24
2019-02-22T12:32:05.282Z,15.14
2019-02-22T12:33:05.372Z,15.25
2019-02-22T12:34:05.587Z,15.19
2019-02-22T12:35:05.829Z,15.19
2019-02-22T12:36:06.573Z,15.11
2019-02-22T12:37:06.094Z,14.99
2019-02-22T12:38:06.112Z,14.97
2019-02-22T12:39:06.490Z,14.85
2019-02-22T12:40:06.488Z,14.82
2019-02-22T12:41:06.570Z,14.77
2019-02-22T12:42:06.825Z,14.72
2019-02-22T12:43:07.488Z,14.72
2019-02-22T12:44:07.129Z,14.66
2019-02-22T12:45:07.299Z,14.45
2019-02-22T12:46:07.516Z,14.45
2019-02-22T12:47:07.725Z,14.47
2019-02-22T12:48:07.939Z,14.37
2019-02-22T12:49:08.095Z,14.41
2019-02-22T12:50:10.734Z,14.40
2019-02-22T12:51:09.136Z,14.30
2019-02-22T12:52:09.020Z,14.22
2019-02-22T12:53:10.264Z,14.18
2019-02-22T12:54:09.456Z,14.23